Time;durP1;ratioP1;P1;durP2;ratioP2;P2;SDS_P1;SDS_P2;PMS_P1;PMS_P2;Temp;Humidity;BMP_temperature;BMP_pressure;BME280_temperature;BME280_humidity;BME280_pressure;Samples;Min_cycle;Max_cycle;Signal;HPM_P1;HPM_P2
2022/12/11 00:00:28;;;;;;;3.55;3.25;;;20.20;48.80;;;;;;5037433;28;43649;-61
2022/12/11 00:02:56;;;;;;;3.85;3.55;;;20.10;48.80;;;;;;5023994;28;43778;-61
2022/12/11 00:05:24;;;;;;;4.38;3.85;;;20.10;48.70;;;;;;5025789;28;43799;-61
2022/12/11 00:07:51;;;;;;;4.00;3.70;;;20.10;48.80;;;;;;5042389;28;43524;-62
2022/12/11 00:10:19;;;;;;;3.92;3.63;;;20.10;48.80;;;;;;5012373;28;43493;-61
2022/12/11 00:12:46;;;;;;;3.90;3.60;;;20.10;48.80;;;;;;5031613;28;45041;-61
2022/12/11 00:15:13;;;;;;;3.60;3.30;;;20.10;48.80;;;;;;5026367;28;43815;-61
2022/12/11 00:17:41;;;;;;;4.20;3.80;;;20.10;48.80;;;;;;5042917;28;43406;-61
2022/12/11 00:20:09;;;;;;;3.95;3.58;;;20.10;48.80;;;;;;5041727;28;43419;-61
2022/12/11 00:22:36;;;;;;;3.65;3.35;;;20.10;48.80;;;;;;5042752;28;44827;-61
2022/12/11 00:25:04;;;;;;;3.60;3.30;;;20.00;48.80;;;;;;5027370;28;43679;-61
2022/12/11 00:27:31;;;;;;;3.70;3.40;;;20.10;48.90;;;;;;5033726;28;43587;-61
2022/12/11 00:29:59;;;;;;;3.70;3.40;;;20.00;48.80;;;;;;5035188;28;43448;-61
2022/12/11 00:32:27;;;;;;;3.70;3.40;;;20.00;48.90;;;;;;5042289;28;43891;-61
2022/12/11 00:34:54;;;;;;;3.83;3.53;;;20.00;48.90;;;;;;5022740;28;43674;-61
2022/12/11 00:37:22;;;;;;;4.28;3.88;;;20.00;48.90;;;;;;5032766;28;43559;-60
2022/12/11 00:39:50;;;;;;;3.70;3.40;;;19.90;48.90;;;;;;5041693;28;43665;-61
2022/12/11 00:42:17;;;;;;;3.70;3.40;;;19.90;49.00;;;;;;5042128;28;44738;-61
2022/12/11 00:44:44;;;;;;;3.97;3.67;;;19.90;48.90;;;;;;5041838;28;43796;-61
2022/12/11 00:47:12;;;;;;;3.90;3.60;;;19.90;48.90;;;;;;5041723;28;43416;-61
2022/12/11 00:49:40;;;;;;;3.80;3.50;;;19.90;48.90;;;;;;5040405;28;43415;-60
2022/12/11 00:52:16;;;;;;;3.60;3.30;;;19.90;49.60;;;;;;5041854;28;44074;-61
2022/12/11 00:54:44;;;;;;;4.00;3.60;;;19.80;48.90;;;;;;5041055;28;43941;-61
2022/12/11 00:57:12;;;;;;;3.80;3.50;;;19.80;49.00;;;;;;5041783;28;43431;-61
2022/12/11 00:59:39;;;;;;;3.63;3.33;;;19.90;49.00;;;;;;5041735;28;43423;-61
2022/12/11 01:02:07;;;;;;;3.75;3.45;;;19.80;49.00;;;;;;5041121;28;44677;-61
2022/12/11 01:04:35;;;;;;;4.15;3.75;;;19.80;49.00;;;;;;5041422;28;43432;-61
2022/12/11 01:07:03;;;;;;;3.97;3.55;;;19.80;49.10;;;;;;5042129;28;43444;-61
2022/12/11 01:12:17;;;;;;;3.80;3.50;;;19.80;49.10;;;;;;5041262;28;44999;-61
2022/12/11 01:14:44;;;;;;;3.70;3.40;;;19.70;49.10;;;;;;5041046;28;43412;-62
2022/12/11 01:17:11;;;;;;;3.75;3.40;;;19.70;49.10;;;;;;5022206;28;43494;-61
2022/12/11 01:19:39;;;;;;;3.60;3.30;;;19.80;49.10;;;;;;5038215;28;43495;-60
2022/12/11 01:22:06;;;;;;;3.65;3.35;;;19.70;49.10;;;;;;5040940;28;44768;-61
2022/12/11 01:24:34;;;;;;;4.30;3.90;;;19.70;49.10;;;;;;5033335;28;43519;-61
2022/12/11 01:27:01;;;;;;;4.10;3.38;;;19.70;49.10;;;;;;5034603;28;43454;-61
2022/12/11 01:29:29;;;;;;;3.58;3.28;;;19.70;49.10;;;;;;5040832;28;43435;-61
2022/12/11 01:31:56;;;;;;;3.58;3.28;;;19.70;49.20;;;;;;5026387;28;44736;-61
2022/12/11 01:34:24;;;;;;;3.60;3.30;;;19.70;49.20;;;;;;5032956;28;44026;-62
2022/12/11 01:36:52;;;;;;;4.32;3.92;;;19.60;49.10;;;;;;5033658;28;43454;-61
2022/12/11 01:39:20;;;;;;;3.72;3.42;;;19.60;49.10;;;;;;5024874;28;43590;-61
2022/12/11 01:41:47;;;;;;;4.00;3.65;;;19.60;49.20;;;;;;5041566;28;43798;-61
2022/12/11 01:44:15;;;;;;;3.75;3.45;;;19.60;49.10;;;;;;5032060;28;43769;-61
2022/12/11 01:46:42;;;;;;;3.65;3.35;;;19.60;49.20;;;;;;5034240;28;43460;-61
2022/12/11 01:49:12;;;;;;;3.47;3.17;;;19.60;49.20;;;;;;5034709;28;43446;-62
2022/12/11 01:51:47;;;;;;;3.65;3.33;;;19.50;49.20;;;;;;5040620;28;44787;-61
2022/12/11 01:54:17;;;;;;;3.97;3.65;;;19.50;49.20;;;;;;5040969;28;43465;-61
2022/12/11 01:56:46;;;;;;;3.60;3.17;;;19.50;49.30;;;;;;5040907;28;43435;-61
2022/12/11 01:59:17;;;;;;;3.72;3.42;;;19.50;49.20;;;;;;5040413;28;43439;-61
2022/12/11 02:02:06;;;;;;;;;;;19.50;49.30;;;;;;5041717;28;44755;-62
2022/12/11 02:04:37;;;;;;;3.80;3.45;;;19.40;49.30;;;;;;5042759;28;43822;-61
2022/12/11 02:07:04;;;;;;;3.60;3.30;;;19.40;49.40;;;;;;5045136;28;43464;-61
2022/12/11 02:09:34;;;;;;;3.40;3.10;;;19.40;49.40;;;;;;5044440;28;43476;-61
2022/12/11 02:12:11;;;;;;;3.40;3.10;;;19.40;49.40;;;;;;5041167;28;45037;-61
2022/12/11 02:15:10;;;;;;;3.78;3.47;;;19.40;49.40;;;;;;5040926;28;43438;-61
2022/12/11 02:17:47;;;;;;;3.50;3.20;;;19.40;49.30;;;;;;5025128;28;43379;-61
2022/12/11 02:20:26;;;;;;;3.80;3.40;;;19.40;49.40;;;;;;5037759;28;43470;-61
2022/12/11 02:23:12;;;;;;;3.75;3.40;;;19.40;49.40;;;;;;5043856;28;44560;-61
2022/12/11 02:26:11;;;;;;;3.55;3.25;;;19.30;49.40;;;;;;5043365;28;43974;-61
2022/12/11 02:28:57;;;;;;;3.42;3.13;;;19.30;49.40;;;;;;5043787;28;44146;-61
2022/12/11 02:31:25;;;;;;;3.50;3.20;;;19.30;49.40;;;;;;5031137;28;43505;-62
2022/12/11 02:34:14;;;;;;;3.88;3.28;;;19.30;49.40;;;;;;5036199;28;44813;-61
2022/12/11 02:36:47;;;;;;;3.30;3.00;;;19.30;49.40;;;;;;5038365;28;43495;-61
2022/12/11 02:39:16;;;;;;;3.50;3.20;;;19.20;49.40;;;;;;5031538;28;43511;-61
2022/12/11 02:41:48;;;;;;;3.75;3.42;;;19.20;49.50;;;;;;5044440;28;43486;-61
2022/12/11 02:44:21;;;;;;;4.10;3.70;;;19.20;50.20;;;;;;5043353;28;44650;-61
2022/12/11 02:46:51;;;;;;;3.47;3.13;;;19.20;49.60;;;;;;5043279;28;43412;-62
2022/12/11 02:49:21;;;;;;;3.88;3.42;;;19.20;49.60;;;;;;5034399;28;43503;-62
2022/12/11 02:51:50;;;;;;;3.65;3.35;;;19.10;49.50;;;;;;5038707;28;43950;-62
2022/12/11 02:54:26;;;;;;;3.35;3.05;;;19.10;49.50;;;;;;5042961;28;44942;-62
2022/12/11 02:57:03;;;;;;;3.60;3.30;;;19.10;49.50;;;;;;5043779;28;43642;-61
2022/12/11 02:59:45;;;;;;;4.00;3.58;;;19.10;49.60;;;;;;5042049;28;43423;-62
2022/12/11 03:02:14;;;;;;;3.58;3.28;;;19.10;49.60;;;;;;5040621;28;43442;-61
2022/12/11 03:04:44;;;;;;;3.85;3.38;;;19.10;49.60;;;;;;5030666;28;44684;-61
2022/12/11 03:07:22;;;;;;;3.30;3.00;;;19.10;49.60;;;;;;5042342;28;43794;-61
2022/12/11 03:09:50;;;;;;;4.20;3.33;;;19.00;49.70;;;;;;5043215;28;43913;-61
2022/12/11 03:12:35;;;;;;;3.45;3.15;;;19.00;49.70;;;;;;5043717;28;44070;-62
2022/12/11 03:15:06;;;;;;;3.63;3.33;;;19.00;49.60;;;;;;5042067;28;44826;-61
2022/12/11 03:17:41;;;;;;;4.07;3.67;;;19.00;49.60;;;;;;5043861;28;44002;-61
2022/12/11 03:20:20;;;;;;;3.63;3.25;;;19.00;49.70;;;;;;5027976;28;43486;-61
2022/12/11 03:22:58;;;;;;;3.55;3.25;;;19.00;49.80;;;;;;5040145;28;44044;-62
2022/12/11 03:25:43;;;;;;;3.67;3.38;;;18.90;49.70;;;;;;5039488;28;43967;-61
2022/12/11 03:28:40;;;;;;;3.40;3.08;;;18.90;49.70;;;;;;5028506;28;43730;-61
2022/12/11 03:31:11;;;;;;;4.03;3.63;;;18.90;49.80;;;;;;5032933;28;43488;-61
2022/12/11 03:33:46;;;;;;;4.00;3.47;;;18.90;49.90;;;;;;5042403;28;43963;-61
2022/12/11 03:36:24;;;;;;;3.80;3.40;;;18.80;49.80;;;;;;5040119;28;44667;-61
2022/12/11 03:39:04;;;;;;;3.70;3.40;;;18.80;49.90;;;;;;5029482;28;43779;-62
2022/12/11 03:41:34;;;;;;;4.00;3.60;;;18.80;50.00;;;;;;5042423;28;43587;-61
2022/12/11 03:44:02;;;;;;;3.33;3.03;;;18.80;50.00;;;;;;5042516;28;43431;-62
2022/12/11 03:46:34;;;;;;;3.70;3.40;;;18.80;50.00;;;;;;5029207;28;44699;-61
2022/12/11 03:49:07;;;;;;;4.00;3.60;;;18.80;50.00;;;;;;5029728;28;44027;-61
2022/12/11 03:51:35;;;;;;;4.43;3.80;;;18.70;50.00;;;;;;5038628;28;43421;-61
2022/12/11 03:54:03;;;;;;;3.78;3.47;;;18.70;50.00;;;;;;5031730;28;43420;-62
2022/12/11 03:56:34;;;;;;;5.25;3.90;;;18.70;50.00;;;;;;5041848;28;44757;-61
2022/12/11 03:59:01;;;;;;;5.15;4.45;;;18.70;50.00;;;;;;5042732;28;44004;-61
2022/12/11 04:01:29;;;;;;;4.03;3.50;;;18.70;50.00;;;;;;5043070;28;43475;-61
2022/12/11 04:03:57;;;;;;;3.97;3.30;;;18.70;50.00;;;;;;5042207;28;44083;-61
2022/12/11 04:06:24;;;;;;;4.60;3.30;;;18.70;50.10;;;;;;5042301;28;44728;-61
2022/12/11 04:08:52;;;;;;;3.70;3.40;;;18.60;50.00;;;;;;5041930;28;43691;-62
2022/12/11 04:11:34;;;;;;;3.70;3.40;;;18.60;50.00;;;;;;5042246;28;43614;-61
2022/12/11 04:16:58;;;;;;;4.00;3.60;;;18.60;50.20;;;;;;5039317;28;44026;-62
2022/12/11 04:25:01;;;;;;;3.72;3.42;;;18.60;50.20;;;;;;5042267;28;43510;-62
2022/12/11 04:30:17;;;;;;;3.85;3.10;;;18.50;50.10;;;;;;5041982;28;43915;-61
2022/12/11 04:32:45;;;;;;;4.45;3.75;;;18.50;50.20;;;;;;5041654;28;43423;-62
2022/12/11 04:35:13;;;;;;;4.10;3.70;;;18.50;50.20;;;;;;5042487;28;43465;-62
2022/12/11 04:37:41;;;;;;;3.63;3.33;;;18.50;50.20;;;;;;5027413;28;43663;-62
2022/12/11 04:40:12;;;;;;;3.80;3.50;;;18.50;50.20;;;;;;5037414;28;43655;-61
2022/12/11 04:42:40;;;;;;;4.65;4.13;;;18.50;50.20;;;;;;5038625;28;43457;-61
2022/12/11 04:45:08;;;;;;;4.28;3.88;;;18.50;50.30;;;;;;5030005;28;43558;-62
2022/12/11 04:47:38;;;;;;;4.07;3.60;;;18.50;50.20;;;;;;5041229;28;44017;-61
2022/12/11 04:50:07;;;;;;;5.15;3.90;;;18.50;50.30;;;;;;5040258;28;43428;-61
2022/12/11 04:52:35;;;;;;;4.32;3.85;;;18.40;50.20;;;;;;5022762;28;43435;-62
2022/12/11 04:55:04;;;;;;;4.28;3.88;;;18.40;50.20;;;;;;5031465;28;43598;-61
2022/12/11 04:57:32;;;;;;;4.05;3.65;;;18.40;50.20;;;;;;5041656;28;44758;-62
2022/12/11 05:00:00;;;;;;;3.80;3.50;;;18.40;50.20;;;;;;5039349;28;43803;-61
2022/12/11 05:02:28;;;;;;;4.18;3.78;;;18.40;50.20;;;;;;5027574;28;43413;-62
2022/12/11 05:04:55;;;;;;;4.25;3.85;;;18.30;50.20;;;;;;5042394;28;43608;-62
2022/12/11 05:07:23;;;;;;;4.25;3.47;;;18.40;50.30;;;;;;5040452;28;43796;-62
2022/12/11 05:09:50;;;;;;;4.38;3.67;;;18.40;50.30;;;;;;5041386;28;43737;-62
2022/12/11 05:12:18;;;;;;;4.10;3.70;;;18.30;50.30;;;;;;5041501;28;43454;-61
2022/12/11 05:14:45;;;;;;;4.35;3.95;;;18.30;50.30;;;;;;5032333;28;43483;-62
2022/12/11 05:17:13;;;;;;;4.60;4.05;;;18.30;51.00;;;;;;5034835;28;43896;-62
2022/12/11 05:19:40;;;;;;;4.75;3.88;;;18.30;50.40;;;;;;5041084;28;43773;-61
2022/12/11 05:22:08;;;;;;;4.28;3.85;;;18.30;51.00;;;;;;5041159;28;44001;-62
2022/12/11 05:24:35;;;;;;;4.45;3.78;;;18.30;50.40;;;;;;5041803;28;43439;-62
2022/12/11 05:27:02;;;;;;;4.07;3.65;;;18.30;50.40;;;;;;5041177;28;44089;-62
2022/12/11 05:29:30;;;;;;;4.55;3.90;;;18.30;50.40;;;;;;5040407;28;44034;-61
2022/12/11 05:31:57;;;;;;;4.30;3.85;;;18.20;50.30;;;;;;5041922;28;43378;-61
2022/12/11 05:34:25;;;;;;;4.25;3.85;;;18.30;50.40;;;;;;5032627;28;43585;-62
2022/12/11 05:36:53;;;;;;;4.15;3.75;;;18.20;50.40;;;;;;5031922;28;44649;-62
2022/12/11 05:39:20;;;;;;;4.55;3.90;;;18.20;50.40;;;;;;5023638;28;43471;-61
2022/12/11 05:41:47;;;;;;;4.28;3.88;;;18.20;50.40;;;;;;5040851;28;43376;-62
2022/12/11 05:44:15;;;;;;;4.68;3.80;;;18.20;50.40;;;;;;5040975;28;43604;-62
2022/12/11 05:46:42;;;;;;;4.07;3.67;;;18.20;50.40;;;;;;5041224;28;44714;-62
2022/12/11 05:49:10;;;;;;;4.30;3.90;;;18.20;50.40;;;;;;5030859;28;43932;-61
2022/12/11 05:51:38;;;;;;;4.90;4.18;;;18.20;50.40;;;;;;5041635;28;43415;-62
2022/12/11 05:54:06;;;;;;;4.10;3.70;;;18.20;50.40;;;;;;5041168;28;43425;-62
2022/12/11 05:56:34;;;;;;;4.20;3.80;;;18.10;50.40;;;;;;5040321;28;44741;-61
2022/12/11 05:59:03;;;;;;;4.28;3.88;;;18.10;50.50;;;;;;5040960;28;43443;-61
2022/12/11 06:01:40;;;;;;;4.05;3.65;;;18.10;50.40;;;;;;5038445;28;43435;-61
2022/12/11 06:04:09;;;;;;;4.18;3.53;;;18.10;50.40;;;;;;5038695;28;43501;-62
2022/12/11 06:06:37;;;;;;;4.10;3.70;;;18.10;50.50;;;;;;5039664;28;44799;-61
2022/12/11 06:09:05;;;;;;;4.35;3.95;;;18.00;50.50;;;;;;5024537;28;43328;-61
2022/12/11 06:11:33;;;;;;;3.97;3.58;;;18.00;50.50;;;;;;5036872;28;43511;-61
2022/12/11 06:14:03;;;;;;;4.10;3.70;;;18.00;50.50;;;;;;5039492;28;43535;-61
2022/12/11 06:16:31;;;;;;;4.40;3.90;;;18.00;50.50;;;;;;5025475;28;44804;-61
2022/12/11 06:18:58;;;;;;;4.10;3.70;;;18.00;50.50;;;;;;5023660;28;43812;-61
2022/12/11 06:21:29;;;;;;;4.13;3.72;;;18.00;50.40;;;;;;5036438;28;43492;-61
2022/12/11 06:23:59;;;;;;;3.80;3.40;;;18.00;50.40;;;;;;5021502;28;43452;-62
2022/12/11 06:26:27;;;;;;;4.45;3.90;;;18.00;50.40;;;;;;5037244;28;44744;-62
2022/12/11 06:28:55;;;;;;;3.97;3.53;;;18.00;50.50;;;;;;5028182;28;43722;-62
2022/12/11 06:31:22;;;;;;;4.15;3.72;;;18.00;50.50;;;;;;5031646;28;43489;-62
2022/12/11 06:33:50;;;;;;;4.03;3.63;;;18.00;50.50;;;;;;5033489;28;43484;-62
2022/12/11 06:36:21;;;;;;;4.25;3.85;;;18.00;50.50;;;;;;5029837;28;43999;-62
2022/12/11 06:38:49;;;;;;;4.20;3.80;;;18.00;50.50;;;;;;5034992;28;44745;-62
2022/12/11 06:41:16;;;;;;;4.47;3.90;;;18.00;50.60;;;;;;5029947;28;43389;-62
2022/12/11 06:43:44;;;;;;;4.18;3.70;;;18.00;50.60;;;;;;5028321;28;43561;-62
2022/12/11 06:46:15;;;;;;;4.15;3.75;;;18.00;50.60;;;;;;5035302;28;44653;-61
2022/12/11 06:48:43;;;;;;;;;;;18.00;50.60;;;;;;5036879;28;43515;-62
2022/12/11 06:51:17;;;;;;;4.82;3.80;;;18.00;50.60;;;;;;5034265;28;43448;-62
2022/12/11 06:53:50;;;;;;;3.85;3.55;;;17.90;50.50;;;;;;5038586;28;43404;-62
2022/12/11 06:56:19;;;;;;;4.32;3.92;;;17.90;50.60;;;;;;5027999;28;44658;-61
2022/12/11 06:58:46;;;;;;;4.30;3.90;;;17.90;50.50;;;;;;5036260;28;43977;-62
2022/12/11 07:01:22;;;;;;;4.22;3.80;;;17.90;50.60;;;;;;5034854;28;43419;-62
2022/12/11 07:03:53;;;;;;;4.60;4.20;;;17.90;50.60;;;;;;5043145;28;43500;-62
2022/12/11 07:06:21;;;;;;;4.10;3.70;;;17.90;50.60;;;;;;5037916;28;43806;-61
2022/12/11 07:08:49;;;;;;;4.28;3.78;;;17.90;50.50;;;;;;5032638;28;43503;-62
2022/12/11 07:11:18;;;;;;;4.28;3.75;;;17.90;50.50;;;;;;5042045;28;43457;-62
2022/12/11 07:13:45;;;;;;;4.30;3.90;;;17.90;50.60;;;;;;5030056;28;43423;-61
2022/12/11 07:16:14;;;;;;;4.88;4.13;;;17.90;50.60;;;;;;5038191;28;43775;-62
2022/12/11 07:18:46;;;;;;;3.53;3.22;;;17.90;50.60;;;;;;5032772;28;43699;-62
2022/12/11 07:21:14;;;;;;;4.60;3.92;;;17.80;50.60;;;;;;5029041;28;43540;-61
2022/12/11 07:23:41;;;;;;;4.05;3.65;;;17.90;50.70;;;;;;5040353;28;43554;-61
2022/12/11 07:26:12;;;;;;;4.40;3.97;;;17.90;50.60;;;;;;5029270;28;44974;-62
2022/12/11 07:28:40;;;;;;;4.20;3.78;;;17.90;50.60;;;;;;5022880;28;43435;-62
2022/12/11 07:31:10;;;;;;;5.57;4.22;;;17.80;50.60;;;;;;5026038;28;43451;-62
2022/12/11 07:33:38;;;;;;;4.10;3.70;;;17.80;50.60;;;;;;5040542;28;43517;-61
2022/12/11 07:36:08;;;;;;;4.45;4.05;;;17.80;50.70;;;;;;5027040;28;44833;-62
2022/12/11 07:38:36;;;;;;;4.63;4.22;;;17.70;51.30;;;;;;5043069;28;43658;-62
2022/12/11 07:41:06;;;;;;;4.22;3.83;;;17.70;50.70;;;;;;5028228;28;43428;-62
2022/12/11 07:43:34;;;;;;;4.30;3.90;;;17.70;50.70;;;;;;5038680;28;43416;-61
2022/12/11 07:46:07;;;;;;;5.63;4.00;;;17.70;50.80;;;;;;5031155;28;43868;-62
2022/12/11 07:48:37;;;;;;;4.47;3.88;;;17.70;50.90;;;;;;5035589;28;44204;-61
2022/12/11 07:51:10;;;;;;;4.40;3.80;;;17.60;50.80;;;;;;5041834;28;43519;-61
2022/12/11 07:53:38;;;;;;;4.43;3.80;;;17.70;50.90;;;;;;5029091;28;43397;-60
2022/12/11 07:56:06;;;;;;;4.43;3.70;;;17.60;50.80;;;;;;5032104;28;44326;-61
2022/12/11 07:58:34;;;;;;;4.43;3.80;;;17.70;51.00;;;;;;5041346;28;43659;-61
2022/12/11 08:01:02;;;;;;;3.92;3.45;;;17.60;50.90;;;;;;5040380;28;44094;-61
2022/12/11 08:03:29;;;;;;;4.53;4.10;;;17.60;50.90;;;;;;5001831;28;43551;-61
2022/12/11 08:05:57;;;;;;;4.10;3.70;;;17.60;50.90;;;;;;4846144;28;44634;-61
2022/12/11 08:08:24;;;;;;;4.20;3.78;;;17.60;50.90;;;;;;5027717;28;43404;-62
2022/12/11 08:10:52;;;;;;;4.18;3.75;;;17.60;51.00;;;;;;5024073;28;43487;-61
2022/12/11 08:13:19;;;;;;;4.13;3.72;;;17.60;50.90;;;;;;5031088;28;43514;-61
2022/12/11 08:15:47;;;;;;;3.92;3.53;;;17.60;50.90;;;;;;5033877;28;43869;-62
2022/12/11 08:18:15;;;;;;;4.00;3.60;;;17.60;51.00;;;;;;5035713;28;43474;-61
2022/12/11 08:20:42;;;;;;;4.13;3.72;;;17.60;51.00;;;;;;5039166;28;43586;-61
2022/12/11 08:23:12;;;;;;;4.18;3.78;;;17.60;51.00;;;;;;5035179;28;43594;-62
2022/12/11 08:25:39;;;;;;;3.80;3.50;;;17.60;51.00;;;;;;5037971;28;44713;-61
2022/12/11 08:28:06;;;;;;;3.75;3.45;;;17.60;51.00;;;;;;5029761;28;43588;-61
2022/12/11 08:30:34;;;;;;;3.90;3.60;;;17.60;51.00;;;;;;5029300;28;43497;-61
2022/12/11 08:33:02;;;;;;;3.80;3.50;;;17.60;51.00;;;;;;5036045;28;44031;-62
2022/12/11 08:35:29;;;;;;;4.03;3.45;;;17.60;51.00;;;;;;5040684;28;44796;-62
2022/12/11 08:37:57;;;;;;;3.67;3.38;;;17.60;51.10;;;;;;5037816;28;43916;-61
2022/12/11 08:40:24;;;;;;;5.85;4.10;;;17.60;51.10;;;;;;5026391;28;43580;-62
2022/12/11 08:42:52;;;;;;;5.45;3.83;;;17.70;51.30;;;;;;5028945;28;43566;-62
2022/12/11 08:45:19;;;;;;;4.65;3.95;;;17.70;51.20;;;;;;5030753;28;44678;-63
2022/12/11 08:47:47;;;;;;;5.00;3.63;;;17.70;51.10;;;;;;5036126;28;43519;-62
2022/12/11 08:50:15;;;;;;;4.00;3.58;;;17.80;51.10;;;;;;5039455;28;43528;-62
2022/12/11 08:52:42;;;;;;;5.88;3.75;;;17.80;51.10;;;;;;5019361;28;43410;-62
2022/12/11 08:55:10;;;;;;;5.45;3.53;;;17.80;51.00;;;;;;5031663;28;44675;-61
2022/12/11 08:57:38;;;;;;;4.18;3.78;;;17.80;51.00;;;;;;5039373;28;43711;-62
2022/12/11 09:00:08;;;;;;;5.43;3.80;;;17.80;51.00;;;;;;5032988;28;43487;-63
2022/12/11 09:02:35;;;;;;;5.07;3.95;;;17.80;50.90;;;;;;5028709;28;43507;-62
2022/12/11 09:05:06;;;;;;;4.45;3.78;;;17.80;51.00;;;;;;5031288;28;44775;-63
2022/12/11 09:07:35;;;;;;;;;;;17.90;51.00;;;;;;5036544;28;43431;-62
2022/12/11 09:10:06;;;;;;;6.97;4.25;;;17.90;50.90;;;;;;5024665;28;43427;-61
2022/12/11 09:12:34;;;;;;;4.85;3.70;;;17.90;50.80;;;;;;5034312;28;43413;-61
2022/12/11 09:15:03;;;;;;;5.68;4.30;;;18.00;50.80;;;;;;5029829;28;44789;-61
2022/12/11 09:17:30;;;;;;;6.55;4.38;;;18.00;50.50;;;;;;5032744;28;43636;-61
2022/12/11 09:19:58;;;;;;;4.22;3.83;;;18.10;50.60;;;;;;5024457;28;43511;-62
2022/12/11 09:22:25;;;;;;;5.25;4.75;;;18.10;50.50;;;;;;5033618;28;43487;-62
2022/12/11 09:24:53;;;;;;;5.88;4.20;;;18.20;50.40;;;;;;5028995;28;44170;-62
2022/12/11 09:27:21;;;;;;;4.68;4.28;;;18.20;50.40;;;;;;5026512;28;43454;-62
2022/12/11 09:29:48;;;;;;;5.40;4.07;;;18.30;50.30;;;;;;5035873;28;43436;-62
2022/12/11 09:32:16;;;;;;;4.53;4.13;;;18.40;50.20;;;;;;5029258;28;44267;-61
2022/12/11 09:34:43;;;;;;;5.03;4.00;;;18.50;50.20;;;;;;5031966;28;44724;-62
2022/12/11 09:37:11;;;;;;;4.75;3.80;;;18.60;50.10;;;;;;5033189;28;43700;-61
2022/12/11 09:39:38;;;;;;;5.10;3.95;;;18.70;50.00;;;;;;5036397;28;43947;-61
2022/12/11 09:42:14;;;;;;;5.72;4.32;;;18.80;50.00;;;;;;5028479;28;43470;-61
2022/12/11 09:44:55;;;;;;;4.90;4.15;;;18.90;49.90;;;;;;5032725;28;44845;-61
2022/12/11 09:47:35;;;;;;;;;;;19.00;49.90;;;;;;5033544;28;43786;-61
2022/12/11 09:50:08;;;;;;;4.68;4.20;;;19.10;49.80;;;;;;5037642;28;43450;-61
2022/12/11 09:53:17;;;;;;;4.60;4.10;;;19.20;49.80;;;;;;5027453;28;43428;-61
2022/12/11 09:56:14;;;;;;;3.60;3.30;;;19.30;49.70;;;;;;5018386;28;43928;-62
2022/12/11 09:58:53;;;;;;;4.65;3.80;;;19.40;49.90;;;;;;5003247;28;43806;-62
2022/12/11 10:01:47;;;;;;;4.40;3.90;;;19.50;49.90;;;;;;5020222;28;43599;-62
2022/12/11 10:04:24;;;;;;;5.45;4.22;;;19.50;50.80;;;;;;5027733;28;43487;-61
2022/12/11 10:07:04;;;;;;;4.15;3.65;;;19.70;50.20;;;;;;5023762;28;43887;-60
2022/12/11 10:09:50;;;;;;;5.45;4.18;;;19.70;49.80;;;;;;5027203;28;44061;-61
2022/12/11 10:12:33;;;;;;;5.68;3.80;;;19.80;49.60;;;;;;5033468;28;43462;-60
2022/12/11 10:15:22;;;;;;;5.38;3.88;;;19.90;49.90;;;;;;5037014;28;43483;-61
2022/12/11 10:17:52;;;;;;;6.30;3.80;;;20.00;49.90;;;;;;5029738;28;44586;-61
2022/12/11 10:20:35;;;;;;;7.10;3.97;;;20.10;49.60;;;;;;5038802;28;43969;-62
2022/12/11 10:23:06;;;;;;;5.43;3.97;;;20.20;49.40;;;;;;5033330;28;43507;-61
2022/12/11 10:25:44;;;;;;;5.53;3.80;;;20.30;49.20;;;;;;5039564;28;43408;-62
2022/12/11 10:28:14;;;;;;;6.00;3.75;;;20.40;49.00;;;;;;5036961;28;44285;-62
2022/12/11 10:31:06;;;;;;;4.65;4.15;;;20.40;48.90;;;;;;5026562;28;43952;-62
2022/12/11 10:33:52;;;;;;;4.45;3.95;;;20.50;48.80;;;;;;5027180;28;43461;-62
2022/12/11 10:36:25;;;;;;;4.90;3.78;;;20.50;48.80;;;;;;5034582;28;43473;-62
2022/12/11 10:38:53;;;;;;;5.13;4.15;;;20.50;48.60;;;;;;5028808;28;44325;-62
2022/12/11 10:41:31;;;;;;;4.78;4.30;;;20.60;48.60;;;;;;5034785;28;43708;-62
2022/12/11 10:44:00;;;;;;;3.95;3.65;;;20.60;48.50;;;;;;5043608;28;43458;-62
2022/12/11 10:46:31;;;;;;;4.93;4.00;;;20.60;48.40;;;;;;5026378;28;43787;-62
2022/12/11 10:49:00;;;;;;;5.05;4.50;;;20.70;48.40;;;;;;5043096;28;44855;-62
2022/12/11 10:51:30;;;;;;;5.47;4.38;;;20.70;48.40;;;;;;5030803;28;43450;-62
2022/12/11 10:54:14;;;;;;;4.22;3.83;;;20.70;48.40;;;;;;5040079;28;43391;-62
2022/12/11 10:56:47;;;;;;;4.88;3.95;;;20.70;48.40;;;;;;5034601;28;43601;-62
2022/12/11 10:59:38;;;;;;;5.90;4.50;;;20.70;48.30;;;;;;5024030;28;43773;-62
2022/12/11 11:02:15;;;;;;;4.95;4.32;;;20.70;48.30;;;;;;5036264;28;44044;-62
2022/12/11 11:04:44;;;;;;;4.95;4.03;;;20.70;48.30;;;;;;5023700;28;43407;-62
2022/12/11 11:07:15;;;;;;;5.38;4.40;;;20.80;48.40;;;;;;5032738;28;43443;-62
2022/12/11 11:09:43;;;;;;;4.60;4.18;;;20.80;48.30;;;;;;5038544;28;44840;-62
2022/12/11 11:12:25;;;;;;;4.38;3.97;;;20.80;48.30;;;;;;5031167;28;43573;-61
2022/12/11 11:15:06;;;;;;;5.22;4.68;;;20.80;48.40;;;;;;5030778;28;43506;-61
2022/12/11 11:17:52;;;;;;;5.78;4.30;;;20.80;48.40;;;;;;5034776;28;43552;-61
2022/12/11 11:20:33;;;;;;;4.72;4.22;;;20.80;48.40;;;;;;5049117;28;44772;-61
2022/12/11 11:23:10;;;;;;;5.03;4.07;;;20.80;48.50;;;;;;5036502;28;43463;-61
2022/12/11 11:25:37;;;;;;;5.45;4.18;;;20.80;48.60;;;;;;5038091;28;43533;-60
2022/12/11 11:28:14;;;;;;;4.18;3.70;;;20.80;48.60;;;;;;5028335;28;43436;-60
2022/12/11 11:30:56;;;;;;;4.10;3.60;;;20.80;48.60;;;;;;5032858;28;44089;-61
2022/12/11 11:33:24;;;;;;;4.65;4.13;;;20.70;48.60;;;;;;5031298;28;43580;-61
2022/12/11 11:35:54;;;;;;;4.85;3.88;;;20.70;48.60;;;;;;5050316;28;43427;-61
2022/12/11 11:38:36;;;;;;;5.05;3.80;;;20.70;48.70;;;;;;5032870;28;43536;-60
2022/12/11 11:41:22;;;;;;;4.40;4.00;;;20.70;48.70;;;;;;5029292;28;44054;-61
2022/12/11 11:43:51;;;;;;;4.28;3.85;;;20.70;48.70;;;;;;5033977;28;43602;-61
2022/12/11 11:46:35;;;;;;;4.53;3.90;;;20.60;48.80;;;;;;5033401;28;43437;-62
2022/12/11 11:49:27;;;;;;;4.25;3.83;;;20.70;48.90;;;;;;5035153;28;43571;-61
2022/12/11 11:52:10;;;;;;;4.43;4.03;;;20.60;48.80;;;;;;5035330;28;43790;-61
2022/12/11 11:54:53;;;;;;;4.78;4.32;;;20.60;48.90;;;;;;5040089;28;43688;-61
2022/12/11 11:57:34;;;;;;;4.38;3.97;;;20.60;48.90;;;;;;5034575;28;43425;-61
2022/12/11 12:00:09;;;;;;;5.65;4.32;;;20.60;49.00;;;;;;5023153;28;43443;-61
2022/12/11 12:02:40;;;;;;;4.80;4.00;;;20.60;49.10;;;;;;5029437;28;44985;-61
2022/12/11 12:05:12;;;;;;;4.78;4.03;;;20.60;49.10;;;;;;5038873;28;43679;-61
2022/12/11 12:07:48;;;;;;;5.28;4.00;;;20.60;49.10;;;;;;5027364;28;43488;-61
2022/12/11 12:10:30;;;;;;;4.55;3.75;;;20.60;49.10;;;;;;5023937;28;43602;-61
2022/12/11 12:13:15;;;;;;;4.20;3.80;;;20.60;49.10;;;;;;5029579;28;44853;-61
2022/12/11 12:16:04;;;;;;;4.38;3.97;;;20.60;49.20;;;;;;5022934;28;43708;-60
2022/12/11 12:19:17;;;;;;;4.18;3.67;;;20.60;49.30;;;;;;5041198;28;43438;-60
2022/12/11 12:21:50;;;;;;;4.18;3.67;;;20.60;49.20;;;;;;5032196;28;43403;-60
2022/12/11 12:24:38;;;;;;;4.80;4.03;;;20.60;49.30;;;;;;5037148;28;44826;-61
2022/12/11 12:27:11;;;;;;;4.20;3.75;;;20.60;49.30;;;;;;5028926;28;43804;-60
2022/12/11 12:30:07;;;;;;;4.10;3.70;;;20.60;49.20;;;;;;5032828;28;43442;-60
2022/12/11 12:32:56;;;;;;;4.63;4.07;;;20.60;49.20;;;;;;5039410;28;43413;-61
2022/12/11 12:35:34;;;;;;;3.90;3.60;;;20.60;49.20;;;;;;5031613;28;43916;-60
2022/12/11 12:38:24;;;;;;;4.05;3.75;;;20.60;49.20;;;;;;5024811;28;43453;-60
2022/12/11 12:41:13;;;;;;;4.10;3.70;;;20.60;49.20;;;;;;5033755;28;43480;-60
2022/12/11 12:44:09;;;;;;;4.60;4.20;;;20.60;49.20;;;;;;5035972;28;43471;-61
2022/12/11 12:46:50;;;;;;;5.05;4.32;;;20.60;49.30;;;;;;5027976;28;44972;-61
2022/12/11 12:49:32;;;;;;;4.23;3.83;;;20.60;49.30;;;;;;5021965;28;43457;-60
2022/12/11 12:52:01;;;;;;;4.55;4.07;;;20.60;49.30;;;;;;5038707;28;43417;-60
2022/12/11 12:54:30;;;;;;;5.10;4.60;;;20.60;49.30;;;;;;5026942;28;43431;-60
2022/12/11 12:57:00;;;;;;;4.63;4.22;;;20.50;49.20;;;;;;5033057;28;43807;-60
2022/12/11 12:59:31;;;;;;;4.38;3.97;;;20.50;49.30;;;;;;5025844;28;44076;-60
2022/12/11 13:02:01;;;;;;;4.93;4.35;;;20.50;49.30;;;;;;5036769;28;43439;-60
2022/12/11 13:04:45;;;;;;;5.00;4.53;;;20.50;49.30;;;;;;5035057;28;43547;-60
2022/12/11 13:07:28;;;;;;;5.05;4.55;;;20.50;49.30;;;;;;5035615;28;43979;-60
2022/12/11 13:10:06;;;;;;;5.20;4.70;;;20.50;49.30;;;;;;5025104;28;43905;-61
2022/12/11 13:12:44;;;;;;;4.82;4.43;;;20.50;49.30;;;;;;5034192;28;43488;-61
2022/12/11 13:15:44;;;;;;;5.13;4.30;;;20.50;49.40;;;;;;5036153;28;43460;-61
2022/12/11 13:18:39;;;;;;;4.57;4.07;;;20.50;49.40;;;;;;4996141;28;43742;-59
2022/12/11 13:21:26;;;;;;;5.10;4.60;;;20.50;49.40;;;;;;5032868;28;43687;-61
2022/12/11 13:23:54;;;;;;;4.75;4.25;;;20.50;49.40;;;;;;5039962;28;43387;-61
2022/12/11 13:26:29;;;;;;;5.28;4.18;;;20.40;49.40;;;;;;5032862;28;43584;-61
2022/12/11 13:28:57;;;;;;;4.85;4.43;;;20.50;49.60;;;;;;5035403;28;44852;-61